Time;durP1;ratioP1;P1;durP2;ratioP2;P2;SDS_P1;SDS_P2;PMS_P1;PMS_P2;Temp;Humidity;BMP_temperature;BMP_pressure;BME280_temperature;BME280_humidity;BME280_pressure;Samples;Min_cycle;Max_cycle;Signal;HPM_P1;HPM_P2
2021/01/12 00:00:50;;;;;;;13.93;10.38;;;9.20;71.50;;;;;;2105426;28;20024;-59
2021/01/12 00:01:50;;;;;;;17.50;11.82;;;9.20;71.50;;;;;;2106473;28;20024;-60
2021/01/12 00:02:51;;;;;;;15.77;9.82;;;9.20;71.60;;;;;;2106957;28;20043;-59
2021/01/12 00:03:53;;;;;;;14.85;11.80;;;9.20;71.70;;;;;;2106956;28;20034;-60
2021/01/12 00:04:54;;;;;;;14.10;11.40;;;9.20;71.60;;;;;;2106303;28;20711;-60
2021/01/12 00:05:55;;;;;;;15.50;10.73;;;9.20;71.80;;;;;;2106825;28;20024;-60
2021/01/12 00:06:55;;;;;;;15.43;10.82;;;9.20;72.00;;;;;;2106680;28;20063;-59
2021/01/12 00:07:56;;;;;;;14.73;11.02;;;9.20;72.00;;;;;;2106396;28;20089;-59
2021/01/12 00:08:56;;;;;;;14.95;11.23;;;9.20;72.00;;;;;;2109938;28;20364;-59
2021/01/12 00:09:57;;;;;;;15.25;11.27;;;9.30;72.00;;;;;;2107295;28;20028;-60
2021/01/12 00:10:57;;;;;;;16.50;11.23;;;9.20;72.00;;;;;;2107511;28;20028;-59
2021/01/12 00:11:58;;;;;;;15.25;10.80;;;9.30;72.20;;;;;;2107972;28;20088;-60
2021/01/12 00:12:59;;;;;;;13.13;11.05;;;9.30;72.10;;;;;;2107149;28;20043;-59
2021/01/12 00:13:59;;;;;;;15.25;11.25;;;9.30;72.00;;;;;;2107295;28;20024;-59
2021/01/12 00:15:01;;;;;;;15.00;10.98;;;9.30;72.20;;;;;;2106943;28;20476;-60
2021/01/12 00:16:01;;;;;;;15.50;11.75;;;9.20;72.20;;;;;;2106923;28;20032;-59
2021/01/12 00:17:04;;;;;;;14.25;11.23;;;9.30;72.30;;;;;;2106969;28;20165;-60
2021/01/12 00:18:05;;;;;;;13.63;10.82;;;9.30;72.60;;;;;;2106892;28;20028;-59
2021/01/12 00:19:05;;;;;;;14.57;10.80;;;9.20;72.50;;;;;;2106352;28;20023;-59
2021/01/12 00:20:07;;;;;;;14.68;10.38;;;9.20;72.50;;;;;;2107011;28;20020;-59
2021/01/12 00:21:08;;;;;;;15.20;11.63;;;9.30;72.40;;;;;;2106552;28;20020;-60
2021/01/12 00:22:16;;;;;;;15.32;11.23;;;9.30;72.40;;;;;;2106700;28;20024;-59
2021/01/12 00:23:17;;;;;;;15.38;11.18;;;9.30;72.60;;;;;;2103687;28;20319;-60
2021/01/12 00:24:18;;;;;;;14.38;11.98;;;9.30;72.50;;;;;;2106408;28;20042;-59
2021/01/12 00:25:19;;;;;;;15.35;11.50;;;9.30;72.80;;;;;;2109399;28;20130;-59
2021/01/12 00:26:19;;;;;;;17.00;11.10;;;9.30;72.70;;;;;;2107758;28;20020;-59
2021/01/12 00:27:22;;;;;;;15.52;11.15;;;9.30;73.00;;;;;;2108352;28;20162;-59
2021/01/12 00:28:23;;;;;;;13.88;11.85;;;9.30;72.80;;;;;;2106578;28;20028;-59
2021/01/12 00:29:23;;;;;;;16.40;11.35;;;9.20;72.90;;;;;;2110186;28;20051;-59
2021/01/12 00:30:24;;;;;;;12.13;10.77;;;9.30;72.90;;;;;;2107791;28;20106;-59
2021/01/12 00:31:25;;;;;;;13.20;10.90;;;9.20;72.70;;;;;;2107724;28;20020;-60
2021/01/12 00:32:26;;;;;;;14.65;10.27;;;9.30;72.80;;;;;;2107341;28;20101;-60
2021/01/12 00:33:27;;;;;;;12.23;10.23;;;9.30;73.00;;;;;;2107622;28;20020;-59
2021/01/12 00:34:27;;;;;;;18.23;11.00;;;9.30;73.10;;;;;;2107787;28;20338;-60
2021/01/12 00:35:28;;;;;;;13.68;10.38;;;9.20;73.30;;;;;;2107418;28;20101;-59
2021/01/12 00:36:28;;;;;;;15.27;11.10;;;9.20;73.20;;;;;;2107300;28;20012;-60
2021/01/12 00:37:29;;;;;;;13.27;10.52;;;9.20;74.00;;;;;;2108239;28;20385;-60
2021/01/12 00:38:30;;;;;;;16.63;12.05;;;9.20;73.30;;;;;;2109415;28;20020;-60
2021/01/12 00:39:30;;;;;;;14.18;10.70;;;9.20;73.20;;;;;;2107732;28;20492;-60
2021/01/12 00:40:31;;;;;;;13.55;10.73;;;9.20;73.30;;;;;;2107692;28;20027;-59
2021/01/12 00:41:32;;;;;;;12.38;10.50;;;9.30;73.30;;;;;;2107314;28;20108;-59
2021/01/12 00:42:33;;;;;;;13.60;10.55;;;9.20;73.30;;;;;;2107604;28;20189;-60
2021/01/12 00:43:33;;;;;;;13.13;10.73;;;9.20;73.50;;;;;;2106997;28;20028;-60
2021/01/12 00:44:34;;;;;;;14.27;10.80;;;9.20;73.60;;;;;;2107139;28;20071;-59
2021/01/12 00:45:34;;;;;;;13.85;11.25;;;9.20;73.60;;;;;;2107741;28;20024;-60
2021/01/12 00:46:35;;;;;;;15.30;10.95;;;9.30;73.60;;;;;;2107488;28;20086;-60
2021/01/12 00:47:35;;;;;;;13.77;10.80;;;9.20;73.50;;;;;;2107644;28;20059;-60
2021/01/12 00:48:36;;;;;;;13.35;10.68;;;9.20;73.50;;;;;;2107594;28;20024;-60
2021/01/12 00:49:37;;;;;;;13.18;10.77;;;9.20;73.40;;;;;;2107429;28;20346;-60
2021/01/12 00:50:37;;;;;;;12.25;10.50;;;9.20;73.50;;;;;;2108307;28;20504;-60
2021/01/12 00:51:39;;;;;;;13.68;10.82;;;9.20;73.40;;;;;;2107681;28;20035;-60
2021/01/12 00:52:40;;;;;;;14.68;11.45;;;9.20;73.50;;;;;;2107748;28;20020;-60
2021/01/12 00:53:40;;;;;;;13.23;11.50;;;9.20;73.60;;;;;;2108050;28;20052;-60
2021/01/12 00:54:41;;;;;;;15.68;12.05;;;9.20;73.70;;;;;;2108370;28;20024;-60
2021/01/12 00:55:42;;;;;;;14.10;11.13;;;9.20;73.70;;;;;;2107769;28;20028;-60
2021/01/12 00:56:42;;;;;;;14.38;11.73;;;9.20;73.60;;;;;;2108305;28;20101;-60
2021/01/12 00:57:43;;;;;;;11.68;10.32;;;9.20;73.90;;;;;;2107740;28;20023;-60
2021/01/12 00:58:43;;;;;;;14.02;11.50;;;9.20;73.80;;;;;;2106935;28;20028;-60
2021/01/12 00:59:45;;;;;;;12.75;10.52;;;9.20;73.60;;;;;;2106317;28;20031;-60
2021/01/12 01:00:46;;;;;;;13.13;10.77;;;9.20;73.70;;;;;;2106789;28;20016;-60
2021/01/12 01:01:47;;;;;;;14.02;10.95;;;9.20;74.00;;;;;;2106386;28;20074;-60
2021/01/12 01:02:48;;;;;;;14.93;11.25;;;9.20;74.10;;;;;;2107696;28;20053;-60
2021/01/12 01:03:48;;;;;;;12.15;10.18;;;9.20;74.10;;;;;;2105264;28;20054;-60
2021/01/12 01:04:49;;;;;;;13.85;11.20;;;9.20;74.00;;;;;;2103993;28;20112;-60
2021/01/12 01:05:49;;;;;;;15.07;10.57;;;9.20;73.90;;;;;;2106407;28;20108;-60
2021/01/12 01:06:50;;;;;;;13.50;10.40;;;9.10;74.70;;;;;;2107441;28;20027;-60
2021/01/12 01:07:51;;;;;;;11.50;10.25;;;9.10;73.80;;;;;;2108304;28;20024;-60
2021/01/12 01:08:52;;;;;;;17.08;12.13;;;9.20;73.70;;;;;;2107269;28;20016;-60
2021/01/12 01:09:52;;;;;;;13.35;10.98;;;9.20;73.80;;;;;;2108179;28;20024;-60
2021/01/12 01:10:53;;;;;;;12.40;10.27;;;9.10;73.80;;;;;;2108661;28;20418;-60
2021/01/12 01:11:53;;;;;;;12.13;9.95;;;9.10;74.00;;;;;;2107582;28;20047;-60
2021/01/12 01:12:54;;;;;;;10.95;9.70;;;9.10;74.90;;;;;;2107990;28;20021;-60
2021/01/12 01:13:57;;;;;;;12.35;10.75;;;9.20;74.00;;;;;;2109598;28;20028;-60
2021/01/12 01:14:57;;;;;;;12.25;10.50;;;9.10;74.10;;;;;;2107812;28;20028;-60
2021/01/12 01:15:58;;;;;;;11.85;9.25;;;9.10;74.10;;;;;;2108553;28;20020;-59
2021/01/12 01:16:58;;;;;;;11.90;10.48;;;9.10;74.10;;;;;;2106322;28;20173;-60
2021/01/12 01:17:59;;;;;;;13.07;10.35;;;9.10;74.10;;;;;;2107160;28;20043;-60
2021/01/12 01:19:00;;;;;;;12.40;9.75;;;9.10;74.10;;;;;;2107005;28;20043;-60
2021/01/12 01:20:01;;;;;;;13.05;9.85;;;9.10;74.20;;;;;;2107756;28;20040;-60
2021/01/12 01:21:01;;;;;;;12.05;9.85;;;9.10;74.20;;;;;;2107803;28;20047;-60
2021/01/12 01:22:02;;;;;;;12.13;9.98;;;9.10;74.20;;;;;;2108904;28;20055;-60
2021/01/12 01:23:03;;;;;;;11.23;10.05;;;9.10;74.20;;;;;;2107054;28;20077;-60
2021/01/12 01:24:04;;;;;;;12.35;10.60;;;9.10;74.40;;;;;;2108075;28;20028;-60
2021/01/12 01:25:05;;;;;;;11.90;9.80;;;9.10;74.50;;;;;;2107373;28;20036;-60
2021/01/12 01:26:06;;;;;;;10.93;9.10;;;9.10;75.20;;;;;;2106758;28;20043;-60
2021/01/12 01:27:06;;;;;;;11.70;10.43;;;9.10;74.60;;;;;;2102520;28;20028;-59
2021/01/12 01:28:07;;;;;;;10.85;9.38;;;9.10;74.90;;;;;;2107364;28;20056;-60
2021/01/12 01:29:07;;;;;;;12.73;10.20;;;9.10;74.90;;;;;;2107036;28;20347;-60
2021/01/12 01:30:08;;;;;;;12.57;10.63;;;9.10;75.00;;;;;;2107466;28;20028;-60
2021/01/12 01:31:09;;;;;;;12.25;9.98;;;9.10;74.90;;;;;;2106737;28;20028;-60
2021/01/12 01:32:10;;;;;;;11.90;9.80;;;9.10;74.90;;;;;;2106778;28;20627;-60
2021/01/12 01:33:10;;;;;;;12.00;9.63;;;9.10;74.90;;;;;;2107293;28;20039;-60
2021/01/12 01:34:11;;;;;;;11.30;9.25;;;9.10;74.80;;;;;;2106610;28;20032;-60
2021/01/12 01:35:12;;;;;;;12.38;10.15;;;9.10;74.80;;;;;;2106714;28;20058;-60
2021/01/12 01:36:12;;;;;;;10.32;9.23;;;9.10;74.60;;;;;;2098146;28;20092;-60
2021/01/12 01:37:16;;;;;;;12.20;9.07;;;9.20;74.70;;;;;;2096888;28;20017;-60
2021/01/12 01:38:16;;;;;;;15.73;10.60;;;9.20;74.90;;;;;;2107465;28;20032;-60
2021/01/12 01:39:17;;;;;;;11.65;9.90;;;9.10;74.60;;;;;;2106002;28;20458;-60
2021/01/12 01:40:22;;;;;;;11.48;9.10;;;9.20;74.70;;;;;;2106458;28;20027;-60
2021/01/12 01:41:23;;;;;;;11.10;9.50;;;9.10;74.70;;;;;;2105815;28;20038;-60
2021/01/12 01:42:23;;;;;;;12.07;10.40;;;9.10;74.50;;;;;;2107038;28;20028;-60
2021/01/12 01:43:24;;;;;;;10.57;9.20;;;9.10;74.60;;;;;;2106008;28;20036;-60
2021/01/12 01:44:24;;;;;;;11.40;10.20;;;9.10;74.70;;;;;;2106443;28;20020;-60
2021/01/12 01:45:25;;;;;;;12.55;10.13;;;9.10;74.60;;;;;;2106428;28;20028;-60
2021/01/12 01:46:26;;;;;;;10.75;9.55;;;9.10;74.80;;;;;;2106162;28;20465;-60
2021/01/12 01:47:27;;;;;;;12.52;10.23;;;9.10;74.90;;;;;;2106235;28;20055;-60
2021/01/12 01:48:27;;;;;;;12.50;10.05;;;9.10;74.80;;;;;;2106249;28;20039;-60
2021/01/12 01:49:28;;;;;;;11.25;9.55;;;9.10;74.80;;;;;;2106556;28;20051;-61
2021/01/12 01:50:29;;;;;;;12.18;9.60;;;9.10;74.80;;;;;;2106638;28;20020;-60
2021/01/12 01:51:30;;;;;;;12.55;9.73;;;9.10;74.90;;;;;;2106443;28;20020;-60
2021/01/12 01:52:31;;;;;;;11.27;9.52;;;9.10;75.00;;;;;;2106572;28;20458;-60
2021/01/12 01:53:35;;;;;;;11.43;9.73;;;9.10;75.00;;;;;;2106024;28;20036;-60
2021/01/12 01:54:38;;;;;;;10.88;9.70;;;9.10;75.00;;;;;;2105973;28;20019;-60
2021/01/12 01:55:39;;;;;;;10.50;9.40;;;9.10;75.00;;;;;;2106457;28;20025;-60
2021/01/12 01:56:40;;;;;;;11.20;9.57;;;9.10;75.00;;;;;;2105878;28;20035;-60
2021/01/12 01:57:41;;;;;;;11.70;9.98;;;9.10;74.80;;;;;;2105969;28;20052;-60
2021/01/12 01:58:42;;;;;;;10.48;9.38;;;9.10;74.80;;;;;;2106084;28;20117;-60
2021/01/12 01:59:42;;;;;;;11.70;9.75;;;9.10;74.80;;;;;;2106223;28;20063;-60
2021/01/12 02:00:44;;;;;;;9.57;8.57;;;9.10;74.70;;;;;;2106286;28;20106;-60
2021/01/12 02:01:45;;;;;;;11.15;8.45;;;9.10;74.70;;;;;;2106101;28;20016;-60
2021/01/12 02:02:55;;;;;;;11.30;9.20;;;9.10;74.60;;;;;;2106195;28;20031;-60
2021/01/12 02:04:31;;;;;;;10.68;8.77;;;9.10;74.70;;;;;;2099869;28;20021;-60
2021/01/12 02:05:34;;;;;;;10.98;8.65;;;9.10;75.30;;;;;;2099600;28;20070;-60
2021/01/12 02:06:37;;;;;;;12.27;9.27;;;9.10;74.80;;;;;;2106582;28;20078;-60
2021/01/12 02:07:43;;;;;;;9.93;8.43;;;9.10;74.70;;;;;;2105504;28;20058;-61
2021/01/12 02:08:55;;;;;;;10.50;8.90;;;9.10;74.90;;;;;;2099286;28;20343;-60
2021/01/12 02:10:00;;;;;;;9.55;8.18;;;9.10;75.10;;;;;;2103159;28;20024;-60
2021/01/12 02:11:01;;;;;;;10.07;9.07;;;9.10;75.00;;;;;;2105629;28;20086;-60
2021/01/12 02:12:07;;;;;;;9.48;8.57;;;9.10;74.90;;;;;;2104318;28;20420;-61
2021/01/12 02:13:12;;;;;;;10.25;8.77;;;9.10;75.00;;;;;;2105974;28;20476;-60
2021/01/12 02:14:16;;;;;;;9.35;7.95;;;9.10;75.00;;;;;;2106262;28;20024;-60
2021/01/12 02:15:22;;;;;;;8.68;7.82;;;9.10;75.00;;;;;;2097121;28;20102;-60
2021/01/12 02:16:24;;;;;;;9.88;8.13;;;9.10;75.00;;;;;;2098293;28;20055;-60
2021/01/12 02:17:27;;;;;;;10.38;8.68;;;9.10;75.00;;;;;;2106471;28;20032;-60
2021/01/12 02:18:33;;;;;;;9.15;7.90;;;9.10;75.10;;;;;;2106130;28;20016;-61
2021/01/12 02:19:34;;;;;;;7.95;7.15;;;9.10;75.20;;;;;;2106018;28;20512;-60
2021/01/12 02:20:35;;;;;;;8.60;7.70;;;9.10;75.20;;;;;;2105765;28;20024;-60
2021/01/12 02:21:47;;;;;;;8.60;7.75;;;9.10;75.40;;;;;;2106051;28;20031;-60
2021/01/12 02:23:07;;;;;;;8.32;7.47;;;9.10;75.60;;;;;;2102646;28;20422;-60
2021/01/12 02:24:08;;;;;;;;;;;9.10;75.60;;;;;;2106739;28;20097;-60
2021/01/12 02:25:10;;;;;;;7.03;6.32;;;9.10;75.80;;;;;;2105567;28;20564;-61
2021/01/12 02:26:10;;;;;;;7.85;7.05;;;9.20;75.20;;;;;;2105868;28;20490;-60
2021/01/12 02:27:11;;;;;;;7.65;6.95;;;9.10;75.00;;;;;;2106034;28;20034;-60
2021/01/12 02:28:13;;;;;;;7.60;6.85;;;9.10;75.20;;;;;;2096951;28;20143;-60
2021/01/12 02:29:14;;;;;;;8.38;6.95;;;9.10;75.40;;;;;;2097270;28;20418;-60
2021/01/12 02:30:15;;;;;;;7.68;6.78;;;9.10;75.40;;;;;;2106325;28;20050;-60
2021/01/12 02:31:16;;;;;;;7.65;6.70;;;9.10;75.50;;;;;;2106402;28;20028;-60
2021/01/12 02:32:17;;;;;;;6.85;6.15;;;9.10;75.50;;;;;;2106101;28;20024;-58
2021/01/12 02:33:18;;;;;;;7.97;6.82;;;9.10;75.50;;;;;;2102934;28;20354;-60
2021/01/12 02:34:19;;;;;;;8.13;7.32;;;9.10;75.50;;;;;;2103477;28;20024;-60
2021/01/12 02:35:23;;;;;;;7.68;6.55;;;9.10;75.50;;;;;;2105910;28;20052;-61
2021/01/12 02:36:25;;;;;;;10.15;7.35;;;9.10;75.60;;;;;;2106037;28;20020;-60
2021/01/12 02:37:26;;;;;;;7.43;6.50;;;9.20;76.40;;;;;;2105654;28;20178;-60
2021/01/12 02:38:26;;;;;;;8.43;6.90;;;9.10;75.70;;;;;;2105652;28;20062;-60
2021/01/12 02:39:27;;;;;;;6.90;6.10;;;9.20;75.90;;;;;;2105613;28;20349;-60
2021/01/12 02:40:28;;;;;;;6.70;6.05;;;9.10;75.80;;;;;;2105904;28;20034;-60
2021/01/12 02:41:33;;;;;;;7.57;6.78;;;9.20;75.80;;;;;;2105662;28;20500;-60
2021/01/12 02:42:33;;;;;;;7.30;6.60;;;9.20;75.80;;;;;;2105737;28;20081;-60
2021/01/12 02:43:34;;;;;;;7.38;6.60;;;9.20;75.70;;;;;;2106041;28;20027;-60
2021/01/12 02:44:34;;;;;;;6.32;5.78;;;9.20;76.00;;;;;;2106135;28;20116;-59
2021/01/12 02:45:35;;;;;;;7.22;6.53;;;9.20;75.90;;;;;;2106088;28;20031;-60
2021/01/12 02:46:36;;;;;;;7.03;6.10;;;9.20;75.90;;;;;;2106029;28;20039;-59
2021/01/12 02:47:36;;;;;;;7.45;6.75;;;9.20;76.00;;;;;;2105415;28;20028;-59
2021/01/12 02:48:38;;;;;;;9.05;6.90;;;9.20;76.00;;;;;;2105540;28;20060;-60
2021/01/12 02:49:38;;;;;;;8.02;6.50;;;9.20;76.10;;;;;;2105753;28;20032;-59
2021/01/12 02:50:39;;;;;;;6.72;6.03;;;9.20;76.00;;;;;;2105534;28;20075;-60
2021/01/12 02:51:39;;;;;;;7.65;6.80;;;9.20;76.00;;;;;;2105891;28;20024;-59
2021/01/12 02:52:40;;;;;;;7.00;6.30;;;9.20;76.00;;;;;;2105761;28;20024;-60
2021/01/12 02:53:41;;;;;;;6.60;5.90;;;9.20;76.00;;;;;;2105130;28;20034;-60
2021/01/12 02:54:41;;;;;;;8.65;6.35;;;9.20;76.10;;;;;;2105862;28;20054;-60
2021/01/12 02:55:42;;;;;;;7.00;6.30;;;9.20;76.00;;;;;;2105729;28;20039;-60
2021/01/12 02:56:42;;;;;;;7.13;6.32;;;9.20;76.00;;;;;;2106002;28;20024;-60
2021/01/12 02:57:43;;;;;;;6.47;5.65;;;9.20;76.20;;;;;;2106059;28;20465;-59
2021/01/12 02:58:43;;;;;;;6.18;5.60;;;9.20;76.20;;;;;;2108528;28;20024;-59
2021/01/12 02:59:44;;;;;;;7.05;6.35;;;9.20;76.00;;;;;;2104530;28;20023;-60
2021/01/12 03:00:45;;;;;;;6.75;6.07;;;9.20;76.00;;;;;;2107119;28;20096;-60
2021/01/12 03:01:46;;;;;;;5.68;5.15;;;9.20;76.20;;;;;;2105367;28;20107;-59
2021/01/12 03:02:47;;;;;;;6.13;5.55;;;9.20;76.20;;;;;;2105891;28;20016;-60
2021/01/12 03:03:47;;;;;;;6.40;5.80;;;9.20;76.00;;;;;;2105359;28;20008;-60
2021/01/12 03:04:48;;;;;;;6.47;5.68;;;9.20;76.20;;;;;;2097961;28;20028;-59
2021/01/12 03:05:48;;;;;;;6.65;6.05;;;9.30;76.30;;;;;;2107095;28;20035;-59
2021/01/12 03:06:49;;;;;;;5.72;5.22;;;9.20;76.30;;;;;;2105553;28;20016;-60
2021/01/12 03:07:49;;;;;;;6.18;5.60;;;9.30;76.20;;;;;;2105653;28;20052;-59
2021/01/12 03:08:50;;;;;;;6.63;5.88;;;9.30;76.20;;;;;;2105540;28;20028;-60
2021/01/12 03:09:51;;;;;;;5.35;4.90;;;9.30;76.20;;;;;;2105245;28;20142;-59
2021/01/12 03:10:51;;;;;;;6.13;5.55;;;9.30;76.20;;;;;;2106046;28;20528;-60
2021/01/12 03:11:52;;;;;;;7.50;5.63;;;9.30;76.20;;;;;;2106061;28;20055;-60
2021/01/12 03:12:53;;;;;;;5.32;4.82;;;9.30;76.30;;;;;;2105378;28;20526;-60
2021/01/12 03:13:54;;;;;;;5.35;4.82;;;9.30;76.30;;;;;;2106135;28;20028;-60
2021/01/12 03:14:54;;;;;;;5.95;5.30;;;9.30;76.50;;;;;;2108652;28;20043;-60
2021/01/12 03:15:55;;;;;;;5.72;5.15;;;9.30;76.60;;;;;;2105878;28;20016;-60
2021/01/12 03:16:55;;;;;;;6.07;5.47;;;9.30;76.70;;;;;;2105660;28;20050;-60
2021/01/12 03:17:56;;;;;;;5.45;4.95;;;9.30;76.70;;;;;;2105632;28;20016;-60
2021/01/12 03:18:56;;;;;;;7.00;5.50;;;9.30;76.70;;;;;;2105352;28;20039;-60
2021/01/12 03:19:57;;;;;;;6.00;5.40;;;9.30;76.70;;;;;;2104227;28;20084;-60
2021/01/12 03:20:58;;;;;;;5.50;4.95;;;9.30;76.70;;;;;;2105401;28;20020;-60
2021/01/12 03:21:59;;;;;;;5.40;4.90;;;9.30;76.80;;;;;;2105389;28;20054;-60
2021/01/12 03:23:00;;;;;;;5.70;4.95;;;9.30;76.90;;;;;;2105826;28;20031;-60
2021/01/12 03:24:01;;;;;;;5.20;4.63;;;9.30;76.70;;;;;;2105538;28;20524;-60
2021/01/12 03:25:02;;;;;;;5.18;4.70;;;9.30;76.70;;;;;;2105879;28;20020;-60
2021/01/12 03:26:03;;;;;;;4.90;4.50;;;9.40;76.80;;;;;;2106202;28;20058;-60
2021/01/12 03:27:05;;;;;;;5.10;4.70;;;9.40;76.80;;;;;;2105632;28;21505;-60
2021/01/12 03:28:06;;;;;;;5.72;5.15;;;9.40;76.80;;;;;;2105561;28;20028;-60
2021/01/12 03:29:07;;;;;;;5.03;4.53;;;9.40;76.70;;;;;;2103955;28;20017;-60
2021/01/12 03:30:08;;;;;;;4.80;4.40;;;9.40;76.70;;;;;;2105569;28;20268;-60
2021/01/12 03:31:09;;;;;;;5.20;4.72;;;9.40;76.90;;;;;;2105791;28;20032;-60
2021/01/12 03:32:09;;;;;;;5.20;4.70;;;9.40;77.00;;;;;;2105604;28;20030;-60
2021/01/12 03:33:10;;;;;;;5.03;4.57;;;9.40;77.10;;;;;;2105708;28;20081;-60
2021/01/12 03:34:11;;;;;;;4.82;4.43;;;9.40;77.00;;;;;;2107162;28;20024;-59
2021/01/12 03:35:12;;;;;;;4.45;4.05;;;9.40;77.00;;;;;;2105580;28;20036;-60
2021/01/12 03:36:12;;;;;;;5.90;4.55;;;9.40;77.00;;;;;;2105736;28;20043;-60
2021/01/12 03:37:13;;;;;;;4.45;4.05;;;9.40;77.00;;;;;;2105424;28;20580;-60
2021/01/12 03:38:13;;;;;;;4.60;4.20;;;9.50;77.10;;;;;;2101905;28;20058;-60
2021/01/12 03:39:14;;;;;;;4.50;4.10;;;9.40;77.00;;;;;;2105928;28;20031;-59
2021/01/12 03:40:15;;;;;;;4.43;4.03;;;9.40;77.00;;;;;;2106126;28;20504;-60
2021/01/12 03:41:16;;;;;;;4.43;4.03;;;9.40;77.10;;;;;;2105372;28;20498;-60
2021/01/12 03:42:16;;;;;;;4.35;4.00;;;9.40;77.20;;;;;;2099606;28;20025;-61
2021/01/12 03:43:17;;;;;;;5.63;4.53;;;9.50;77.30;;;;;;2096872;28;20025;-60
2021/01/12 03:44:17;;;;;;;4.10;3.80;;;9.50;77.30;;;;;;2105085;28;20034;-60
2021/01/12 03:45:18;;;;;;;4.30;3.90;;;9.50;77.50;;;;;;2105966;28;20036;-60
2021/01/12 03:46:20;;;;;;;4.45;4.05;;;9.50;77.50;;;;;;2105240;28;20023;-60
2021/01/12 03:47:20;;;;;;;3.95;3.65;;;9.50;77.50;;;;;;2105176;28;20028;-60
2021/01/12 03:48:21;;;;;;;4.13;3.72;;;9.50;77.50;;;;;;2105587;28;20098;-60
2021/01/12 03:49:23;;;;;;;5.25;4.25;;;9.50;77.60;;;;;;2105208;28;20043;-60
2021/01/12 03:50:26;;;;;;;4.15;3.40;;;9.50;77.70;;;;;;2105561;28;20028;-59
2021/01/12 03:51:27;;;;;;;4.22;3.92;;;9.50;77.70;;;;;;2109761;28;20028;-60
2021/01/12 03:52:28;;;;;;;4.03;3.72;;;9.50;77.70;;;;;;2107981;28;20028;-60
2021/01/12 03:53:28;;;;;;;4.75;4.30;;;9.50;77.80;;;;;;2105577;28;20040;-60
2021/01/12 03:54:29;;;;;;;4.10;3.80;;;9.50;77.90;;;;;;2105593;28;20078;-60
2021/01/12 03:55:30;;;;;;;3.97;3.67;;;9.50;77.60;;;;;;2105193;28;20020;-60
2021/01/12 03:56:31;;;;;;;3.95;3.65;;;9.50;77.70;;;;;;2105189;28;20078;-59
2021/01/12 03:57:31;;;;;;;3.80;3.50;;;9.50;77.70;;;;;;2105630;28;20408;-60
2021/01/12 03:58:32;;;;;;;3.90;3.60;;;9.50;77.70;;;;;;2105061;28;20052;-60
2021/01/12 03:59:32;;;;;;;4.07;3.78;;;9.50;77.70;;;;;;2105417;28;20032;-60
2021/01/12 04:00:33;;;;;;;3.83;3.53;;;9.50;77.80;;;;;;2106795;28;20035;-60
2021/01/12 04:01:40;;;;;;;3.65;3.35;;;9.60;78.00;;;;;;2105083;28;20024;-60
2021/01/12 04:02:40;;;;;;;3.60;3.40;;;9.60;78.10;;;;;;2105745;28;20328;-60
2021/01/12 04:03:42;;;;;;;3.75;3.45;;;9.60;78.10;;;;;;2107203;28;20034;-60
2021/01/12 04:04:44;;;;;;;3.65;3.35;;;9.60;78.10;;;;;;2106899;28;20028;-60
2021/01/12 04:05:44;;;;;;;3.90;3.60;;;9.60;78.30;;;;;;2097510;28;20029;-60
2021/01/12 04:06:45;;;;;;;3.67;3.42;;;9.60;78.30;;;;;;2097819;28;20474;-60
2021/01/12 04:07:45;;;;;;;4.45;4.05;;;9.60;78.30;;;;;;2107344;28;20043;-60
2021/01/12 04:08:47;;;;;;;3.83;3.53;;;9.60;78.10;;;;;;2107109;28;20043;-60
2021/01/12 04:09:51;;;;;;;3.60;3.30;;;9.60;78.20;;;;;;2106903;28;20020;-59
2021/01/12 04:10:51;;;;;;;3.70;3.40;;;9.60;78.20;;;;;;2107762;28;20408;-60
2021/01/12 04:11:52;;;;;;;4.20;3.30;;;9.60;77.90;;;;;;2106960;28;20032;-60
2021/01/12 04:12:53;;;;;;;3.78;3.47;;;9.60;77.80;;;;;;2106848;28;20492;-60
2021/01/12 04:13:53;;;;;;;3.13;2.92;;;9.70;78.00;;;;;;2106860;28;20051;-59
2021/01/12 04:14:54;;;;;;;4.20;3.40;;;9.70;78.10;;;;;;2106912;28;20462;-58
2021/01/12 04:15:54;;;;;;;3.40;3.10;;;9.70;78.10;;;;;;2111542;28;20024;-60
2021/01/12 04:16:55;;;;;;;3.15;2.95;;;9.70;78.10;;;;;;2107281;28;20404;-60
2021/01/12 04:17:56;;;;;;;3.35;3.08;;;9.70;78.20;;;;;;2107217;28;20358;-60
2021/01/12 04:18:56;;;;;;;3.58;3.28;;;9.70;78.20;;;;;;2107252;28;20050;-60
2021/01/12 04:19:57;;;;;;;3.42;3.22;;;9.70;78.20;;;;;;2107403;28;20082;-60
2021/01/12 04:20:57;;;;;;;3.05;2.85;;;9.70;78.00;;;;;;2106766;28;20026;-60
2021/01/12 04:21:58;;;;;;;2.83;2.63;;;9.70;78.10;;;;;;2107113;28;20447;-59
2021/01/12 04:22:58;;;;;;;3.10;2.90;;;9.70;78.10;;;;;;2107084;28;20047;-60
2021/01/12 04:23:59;;;;;;;3.65;3.33;;;9.70;78.10;;;;;;2107572;28;20028;-60
2021/01/12 04:24:59;;;;;;;3.25;3.05;;;9.70;78.20;;;;;;2110084;28;20419;-59
2021/01/12 04:26:00;;;;;;;3.58;3.28;;;9.70;78.80;;;;;;2106472;28;20039;-60
2021/01/12 04:27:00;;;;;;;2.90;2.75;;;9.70;78.30;;;;;;2106920;28;20056;-60
2021/01/12 04:28:01;;;;;;;2.80;2.60;;;9.70;78.30;;;;;;2106680;28;20024;-60
2021/01/12 04:29:03;;;;;;;2.80;2.60;;;9.70;78.20;;;;;;2106684;28;20354;-60
2021/01/12 04:30:07;;;;;;;2.50;2.40;;;9.70;78.20;;;;;;2107415;28;20377;-60
2021/01/12 04:31:08;;;;;;;2.83;2.63;;;9.70;78.30;;;;;;2104748;28;20498;-60
2021/01/12 04:32:08;;;;;;;2.47;2.28;;;9.80;78.30;;;;;;2107033;28;20028;-60
2021/01/12 04:33:09;;;;;;;2.90;2.70;;;9.80;78.30;;;;;;2107032;28;20354;-60
2021/01/12 04:34:10;;;;;;;2.95;2.75;;;9.80;78.20;;;;;;2106954;28;20016;-60
2021/01/12 04:35:10;;;;;;;3.00;2.80;;;9.80;78.10;;;;;;2106617;28;20367;-60
2021/01/12 04:36:11;;;;;;;2.60;2.40;;;9.80;78.20;;;;;;2106970;28;20450;-58
2021/01/12 04:37:11;;;;;;;2.75;2.55;;;9.80;78.20;;;;;;2106905;28;20062;-60
2021/01/12 04:38:12;;;;;;;2.17;2.08;;;9.80;78.80;;;;;;2107775;28;20105;-60
2021/01/12 04:39:13;;;;;;;2.33;2.22;;;9.80;78.80;;;;;;2107002;28;20354;-60
2021/01/12 04:40:13;;;;;;;2.58;2.40;;;9.80;77.90;;;;;;2106782;28;20631;-60
2021/01/12 04:41:16;;;;;;;2.78;2.58;;;9.80;78.00;;;;;;2106171;28;20377;-59
2021/01/12 04:42:16;;;;;;;2.80;2.60;;;9.70;77.90;;;;;;2108110;28;20028;-60
2021/01/12 04:43:17;;;;;;;2.70;2.50;;;9.80;78.00;;;;;;2106456;28;20463;-60
2021/01/12 04:44:17;;;;;;;2.40;2.30;;;9.80;78.10;;;;;;2106868;28;20020;-60
2021/01/12 04:45:19;;;;;;;2.42;2.22;;;9.80;78.00;;;;;;2107113;28;20048;-60
2021/01/12 04:46:19;;;;;;;2.58;2.40;;;9.80;78.20;;;;;;2106815;28;20020;-60
2021/01/12 04:47:20;;;;;;;2.58;2.40;;;9.80;78.20;;;;;;2107584;28;20043;-60
2021/01/12 04:48:21;;;;;;;2.30;2.20;;;9.80;78.10;;;;;;2106791;28;20032;-60
2021/01/12 04:49:21;;;;;;;2.67;2.47;;;9.80;78.20;;;;;;2106580;28;20028;-60
2021/01/12 04:50:22;;;;;;;2.45;2.28;;;9.80;78.20;;;;;;2107079;28;20056;-59
2021/01/12 04:51:24;;;;;;;2.35;2.25;;;9.80;78.10;;;;;;2109775;28;20077;-61
2021/01/12 04:52:25;;;;;;;2.63;2.42;;;9.80;78.10;;;;;;2109354;28;20063;-60
2021/01/12 04:53:48;;;;;;;2.75;2.55;;;9.80;78.20;;;;;;2107017;28;20024;-60
2021/01/12 04:54:51;;;;;;;2.35;2.25;;;9.80;79.10;;;;;;2106216;28;20079;-60
2021/01/12 04:55:57;;;;;;;2.20;2.10;;;9.80;78.20;;;;;;2106349;28;20034;-60
2021/01/12 04:56:58;;;;;;;2.47;2.38;;;9.80;78.20;;;;;;2106298;28;20082;-60
2021/01/12 04:57:58;;;;;;;2.65;2.45;;;9.80;78.20;;;;;;2106810;28;20113;-60
2021/01/12 04:58:59;;;;;;;2.80;2.60;;;9.90;78.30;;;;;;2106868;28;20067;-59
2021/01/12 04:59:59;;;;;;;2.38;2.20;;;9.90;78.50;;;;;;2107244;28;20031;-59
2021/01/12 05:01:00;;;;;;;2.25;2.15;;;9.90;78.30;;;;;;2107036;28;20078;-60
2021/01/12 05:02:01;;;;;;;2.47;2.38;;;9.90;78.30;;;;;;2106962;28;20024;-60
2021/01/12 05:03:04;;;;;;;2.60;2.40;;;9.90;78.40;;;;;;2106835;28;20036;-60
2021/01/12 05:04:05;;;;;;;2.35;2.15;;;9.90;78.50;;;;;;2106897;28;20370;-60
2021/01/12 05:05:07;;;;;;;2.25;2.15;;;9.90;78.40;;;;;;2104683;28;20028;-61
2021/01/12 05:06:12;;;;;;;2.60;2.50;;;9.90;78.20;;;;;;2106986;28;20028;-60
2021/01/12 05:07:12;;;;;;;2.72;2.28;;;9.90;78.20;;;;;;2107200;28;20358;-60
2021/01/12 05:08:13;;;;;;;2.47;2.28;;;9.90;78.90;;;;;;2106747;28;20031;-60
2021/01/12 05:09:20;;;;;;;2.10;2.00;;;9.90;78.20;;;;;;2107493;28;20316;-60
2021/01/12 05:10:20;;;;;;;2.40;2.30;;;9.90;78.30;;;;;;2108897;28;20028;-61
2021/01/12 05:11:26;;;;;;;2.42;2.30;;;9.90;78.20;;;;;;2107940;28;20107;-60
2021/01/12 05:12:27;;;;;;;2.40;2.30;;;9.90;78.10;;;;;;2106407;28;20031;-61
2021/01/12 05:13:30;;;;;;;2.45;2.22;;;9.90;78.20;;;;;;2106351;28;20020;-60
2021/01/12 05:14:36;;;;;;;1.90;1.80;;;9.90;78.40;;;;;;2105393;28;20028;-60
2021/01/12 05:15:38;;;;;;;2.63;2.10;;;9.90;78.50;;;;;;2107116;28;20111;-60
2021/01/12 05:16:53;;;;;;;2.17;2.08;;;9.90;78.50;;;;;;2106483;28;20028;-60
2021/01/12 05:17:56;;;;;;;2.20;2.10;;;9.90;78.60;;;;;;2104627;28;20477;-60
2021/01/12 05:18:58;;;;;;;2.47;2.28;;;10.00;78.60;;;;;;2106408;28;20024;-60
2021/01/12 05:20:02;;;;;;;2.10;2.00;;;10.00;78.40;;;;;;2106687;28;20043;-60
2021/01/12 05:21:05;;;;;;;2.10;2.00;;;10.00;78.30;;;;;;2106703;28;20024;-60
2021/01/12 05:22:06;;;;;;;2.45;2.25;;;10.00;78.30;;;;;;2107196;28;20020;-60